Skip Navigation LinksHome page > Tools > METAR decoder Skip Navigation Links

METAR decoder



Chicago O'Hare Intl, Chicago

For information only: do not use for flight planning or navigation.
Latest weather
Observation time Sunday, November 29, 2015 8:51 AM CST
Local time Sunday, November 29, 2015 9:48 AM CST
Flight conditions Visual Meteorological Conditions
Wind direction North (360°)
Wind speed 6 mph
Visibility 10 mi.
Sky condition
Ceiling unlimited
Cloud layer few clouds 12,000 ft.
Cloud layer scattered clouds 25,000 ft.
Temperature 30°F
Dewpoint 21°F
Altimeter 30.38 in.Hg
Pressure change last 3 hours-0.03 in.Hg
Pressure rising more slowly
Derived measurements
Relative humidity 69%
Wind chill 24°F
Density altitude -1770 ft.
Sea-level pressure 30.40 in.Hg
Automated weather observing station with precipitation discriminator.
METAR KORD 291451Z 36005KT 10SM FEW120 SCT250 M01/M06 A3038 RMK AO2 SLP295 T10111061 51009

InnerDrive.Weather 4.0.5722.1 Release CLR 4.0.30319.34014
Copyright ©2015 Inner Drive Technology. All rights reserved. Portions Copyright ©1986-2015 David Braverman.

Find weather

Site navigation

Skip Navigation Links

Place info

Page info

PayPal - The safer, easier way to pay online!

Return home.

Copyright ©2015 Inner Drive Technology. Purveyors of fine, hand-crafted computer software. Page printed 2015-11-29T15:48:41 UTC.